Terminal Aerodrome Forecast
Issued by NWS

Home | Current Version | Previous Version | Text Only | Print | Product List | Glossary On
Versions: 1 2 3 4 5 6 7 8 9 10 11 12 13 14 15 16 17 18 19 20
000
FTUS46 KPDT 240633 AAA
TAFBDN
TAF AMD
KBDN 240633Z 2407/2506 VRB06KT P6SM SCT008
      TEMPO 2407/2410 2SM BR OVC002
     FM241000 VRB06KT 5SM BR SCT005 BKN100
      TEMPO 2410/2414 1SM BR OVC001
     FM241900 34007KT P6SM SCT020
     FM250400 VRB06KT 5SM BR SCT020 BKN050=

USA.gov is the U.S. government's official web portal to all federal, state and local government web resources and services.